Time;durP1;ratioP1;P1;durP2;ratioP2;P2;SDS_P1;SDS_P2;PMS_P1;PMS_P2;Temp;Humidity;BMP_temperature;BMP_pressure;BME280_temperature;BME280_humidity;BME280_pressure;Samples;Min_cycle;Max_cycle;Signal;HPM_P1;HPM_P2
2022/03/10 00:01:09;;;;;;;;;;;22.30;36.40;;;;;;5064000;28;19921;-54
2022/03/10 00:03:34;;;;;;;;;;;22.30;36.40;;;;;;5060916;28;19912;-54
2022/03/10 00:06:00;;;;;;;;;;;22.30;36.40;;;;;;5063733;28;19932;-54
2022/03/10 00:08:25;;;;;;;;;;;22.30;36.20;;;;;;5060320;28;19932;-54
2022/03/10 00:10:51;;;;;;;;;;;22.30;36.10;;;;;;5064494;28;19957;-53
2022/03/10 00:13:16;;;;;;;;;;;22.20;36.00;;;;;;5062008;28;19966;-53
2022/03/10 00:15:42;;;;;;;;;;;22.20;35.70;;;;;;5062927;28;19932;-54
2022/03/10 00:18:07;;;;;;;;;;;22.10;35.90;;;;;;5060963;28;19959;-53
2022/03/10 00:20:33;;;;;;;;;;;22.10;36.10;;;;;;5062522;28;20375;-53
2022/03/10 00:22:58;;;;;;;;;;;22.10;35.90;;;;;;5062765;28;20307;-53
2022/03/10 00:25:24;;;;;;;;;;;22.00;35.90;;;;;;5061637;28;19916;-53
2022/03/10 00:27:50;;;;;;;;;;;22.10;35.70;;;;;;5062740;28;19921;-54
2022/03/10 00:30:16;;;;;;;;;;;22.10;35.50;;;;;;5061934;28;19921;-54
2022/03/10 00:32:42;;;;;;;;;;;22.10;35.60;;;;;;5063665;28;19920;-54
2022/03/10 00:35:07;;;;;;;;;;;22.10;35.20;;;;;;5061126;28;19927;-54
2022/03/10 00:37:33;;;;;;;;;;;22.10;35.20;;;;;;5063777;28;19920;-53
2022/03/10 00:39:58;;;;;;;;;;;22.10;35.20;;;;;;5062060;28;20341;-53
2022/03/10 00:42:24;;;;;;;;;;;22.10;35.20;;;;;;5062957;28;20351;-53
2022/03/10 00:44:49;;;;;;;;;;;22.10;35.20;;;;;;5060427;28;19916;-54
2022/03/10 00:47:15;;;;;;;;;;;22.10;35.20;;;;;;5060594;28;20007;-54
2022/03/10 00:49:41;;;;;;;;;;;22.00;35.10;;;;;;5062231;28;19917;-54
2022/03/10 00:52:06;;;;;;;;;;;22.00;35.10;;;;;;5060504;28;20310;-54
2022/03/10 00:54:32;;;;;;;;;;;22.00;35.10;;;;;;5063024;28;20455;-54
2022/03/10 00:56:57;;;;;;;;;;;21.90;35.00;;;;;;5061232;28;19919;-54
2022/03/10 00:59:23;;;;;;;;;;;21.90;35.60;;;;;;5061378;28;19924;-54
2022/03/10 01:01:48;;;;;;;;;;;21.90;35.60;;;;;;5061052;28;19928;-53
2022/03/10 01:04:13;;;;;;;;;;;21.80;35.50;;;;;;5060823;28;19916;-53
2022/03/10 01:06:39;;;;;;;;;;;21.80;35.00;;;;;;5061965;28;20019;-53
2022/03/10 01:09:05;;;;;;;;;;;21.80;35.20;;;;;;5059038;28;19983;-53
2022/03/10 01:11:30;;;;;;;;;;;21.80;34.90;;;;;;5061936;28;19920;-53
2022/03/10 01:13:57;;;;;;;;;;;21.80;35.00;;;;;;5060422;28;20365;-53
2022/03/10 01:16:22;;;;;;;;;;;21.70;35.10;;;;;;5061290;28;20007;-54
2022/03/10 01:18:48;;;;;;;;;;;21.70;35.10;;;;;;5061205;28;20246;-54
2022/03/10 01:21:13;;;;;;;;;;;21.70;35.10;;;;;;5060760;28;19912;-54
2022/03/10 01:23:38;;;;;;;;;;;21.70;35.00;;;;;;5061237;28;22432;-53
2022/03/10 01:26:04;;;;;;;;;;;21.70;35.00;;;;;;5060762;28;19923;-53
2022/03/10 01:28:29;;;;;;;;;;;21.70;35.10;;;;;;5062922;28;20015;-54
2022/03/10 01:30:55;;;;;;;;;;;21.70;34.90;;;;;;5061329;28;20304;-54
2022/03/10 01:33:20;;;;;;;;;;;21.60;35.00;;;;;;5063125;28;19912;-54
2022/03/10 01:35:46;;;;;;;;;;;21.60;35.10;;;;;;5059296;28;20602;-53
2022/03/10 01:38:11;;;;;;;;;;;21.70;35.20;;;;;;5064067;28;20362;-54
2022/03/10 01:40:37;;;;;;;;;;;21.60;35.00;;;;;;5059348;28;20711;-54
2022/03/10 01:43:02;;;;;;;;;;;21.60;34.80;;;;;;5061015;28;20030;-53
2022/03/10 01:45:28;;;;;;;;;;;21.60;34.90;;;;;;5061314;28;19916;-54
2022/03/10 01:47:53;;;;;;;;;;;21.60;35.10;;;;;;5060971;28;19936;-53
2022/03/10 01:50:19;;;;;;;;;;;21.50;34.90;;;;;;5062125;28;19947;-53
2022/03/10 01:52:44;;;;;;;;;;;21.50;34.80;;;;;;5060305;28;19920;-54
2022/03/10 01:55:10;;;;;;;;;;;21.50;34.80;;;;;;5061956;28;19913;-54
2022/03/10 01:57:35;;;;;;;;;;;21.50;34.90;;;;;;5059820;28;20043;-53
2022/03/10 02:00:01;;;;;;;;;;;21.50;34.80;;;;;;5060620;28;19950;-53
2022/03/10 02:02:26;;;;;;;;;;;21.50;34.90;;;;;;5061205;28;19932;-53
2022/03/10 02:04:52;;;;;;;;;;;21.50;34.70;;;;;;5059973;28;19912;-53
2022/03/10 02:10:17;;;;;;;;;;;21.50;34.90;;;;;;5062610;28;19967;-54
2022/03/10 02:12:46;;;;;;;;;;;21.40;34.60;;;;;;5077622;28;19917;-54
2022/03/10 02:17:56;;;;;;;;;;;21.40;35.30;;;;;;5065959;28;19935;-54
2022/03/10 02:20:22;;;;;;;;;;;21.40;35.70;;;;;;5063722;28;19912;-53
2022/03/10 02:22:47;;;;;;;;;;;21.40;35.70;;;;;;5064117;28;19913;-53
2022/03/10 02:25:13;;;;;;;;;;;21.50;35.80;;;;;;5063663;28;19920;-54
2022/03/10 02:27:38;;;;;;;;;;;21.60;35.70;;;;;;5064786;28;19913;-54
2022/03/10 02:30:04;;;;;;;;;;;21.80;35.60;;;;;;5064360;28;20330;-54
2022/03/10 02:32:29;;;;;;;;;;;22.00;35.10;;;;;;5063241;28;19917;-53
2022/03/10 02:34:55;;;;;;;;;;;22.40;34.80;;;;;;5066098;28;20399;-53
2022/03/10 02:37:21;;;;;;;;;;;22.70;34.90;;;;;;5061807;28;19909;-53
2022/03/10 02:39:47;;;;;;;;;;;23.10;33.90;;;;;;5062623;28;20296;-53
2022/03/10 02:42:15;;;;;;;;;;;23.40;33.30;;;;;;5065396;28;19917;-54
2022/03/10 02:44:41;;;;;;;;;;;23.70;33.10;;;;;;5063035;28;20376;-54
2022/03/10 02:47:07;;;;;;;;;;;23.90;32.70;;;;;;5064406;28;19920;-53
2022/03/10 02:49:32;;;;;;;;;;;24.00;32.40;;;;;;5063255;28;19920;-54
2022/03/10 02:51:57;;;;;;;;;;;24.10;32.10;;;;;;5065722;28;19923;-54
2022/03/10 02:54:23;;;;;;;;;;;24.20;32.00;;;;;;5061531;28;20016;-54
2022/03/10 02:56:48;;;;;;;;;;;24.30;31.80;;;;;;5065022;28;19963;-54
2022/03/10 02:59:14;;;;;;;;;;;24.30;31.80;;;;;;5063085;28;19966;-54
2022/03/10 03:01:39;;;;;;;;;;;24.40;31.80;;;;;;5063304;28;19916;-53
2022/03/10 03:04:05;;;;;;;;;;;24.40;31.70;;;;;;5063772;28;19982;-53
2022/03/10 03:06:30;;;;;;;;;;;24.40;31.60;;;;;;5063984;28;19920;-53
2022/03/10 03:08:56;;;;;;;;;;;24.50;31.70;;;;;;5063253;28;20929;-54
2022/03/10 03:11:21;;;;;;;;;;;24.40;31.60;;;;;;5062890;28;19917;-53
2022/03/10 03:13:46;;;;;;;;;;;24.40;31.60;;;;;;5063519;28;19912;-54
2022/03/10 03:16:12;;;;;;;;;;;24.40;31.50;;;;;;5063418;28;19921;-54
2022/03/10 03:18:38;;;;;;;;;;;24.40;31.50;;;;;;5062097;28;19916;-54
2022/03/10 03:21:03;;;;;;;;;;;24.40;31.50;;;;;;5062986;28;19999;-54
2022/03/10 03:23:29;;;;;;;;;;;24.50;31.50;;;;;;5064761;28;19920;-54
2022/03/10 03:25:54;;;;;;;;;;;24.50;31.50;;;;;;5063041;28;19948;-54
2022/03/10 03:28:23;;;;;;;;;;;24.50;31.50;;;;;;5062445;28;19974;-53
2022/03/10 03:30:49;;;;;;;;;;;24.50;31.50;;;;;;5064503;28;19916;-54
2022/03/10 03:33:14;;;;;;;;;;;24.50;31.50;;;;;;5061348;28;19966;-54
2022/03/10 03:35:41;;;;;;;;;;;24.40;31.50;;;;;;5063471;28;19912;-53
2022/03/10 03:38:06;;;;;;;;;;;24.40;31.50;;;;;;5063494;28;19956;-53
2022/03/10 03:40:32;;;;;;;;;;;24.40;31.40;;;;;;5062587;28;19959;-53
2022/03/10 03:42:57;;;;;;;;;;;24.30;31.40;;;;;;5062871;28;19942;-53
2022/03/10 03:45:23;;;;;;;;;;;24.20;31.60;;;;;;5061715;28;19927;-55
2022/03/10 03:47:48;;;;;;;;;;;24.00;31.70;;;;;;5063678;28;20037;-54
2022/03/10 03:50:14;;;;;;;;;;;24.00;31.90;;;;;;5060667;28;20016;-54
2022/03/10 03:52:39;;;;;;;;;;;23.90;31.90;;;;;;5062977;28;19983;-54
2022/03/10 03:55:05;;;;;;;;;;;23.90;32.00;;;;;;5062154;28;19920;-54
2022/03/10 03:57:30;;;;;;;;;;;23.90;31.90;;;;;;5063234;28;19913;-54
2022/03/10 03:59:56;;;;;;;;;;;24.00;31.90;;;;;;5061788;28;19916;-54
2022/03/10 04:02:21;;;;;;;;;;;24.00;31.90;;;;;;5061367;28;19958;-54
2022/03/10 04:04:47;;;;;;;;;;;23.90;31.80;;;;;;5062116;28;19919;-54
2022/03/10 04:07:12;;;;;;;;;;;24.00;31.90;;;;;;5061262;28;19952;-54
2022/03/10 04:09:38;;;;;;;;;;;24.00;31.80;;;;;;5062608;28;20438;-54
2022/03/10 04:12:03;;;;;;;;;;;24.10;31.70;;;;;;5062203;28;20015;-54
2022/03/10 04:14:29;;;;;;;;;;;24.10;31.60;;;;;;5063180;28;19912;-53
2022/03/10 04:16:54;;;;;;;;;;;24.20;31.50;;;;;;5061647;28;19931;-54
2022/03/10 04:19:20;;;;;;;;;;;24.20;31.30;;;;;;5061519;28;20264;-54
2022/03/10 04:21:45;;;;;;;;;;;24.30;31.40;;;;;;5062671;28;20425;-55
2022/03/10 04:24:10;;;;;;;;;;;24.30;31.40;;;;;;5061724;28;19913;-55
2022/03/10 04:26:36;;;;;;;;;;;24.30;31.30;;;;;;5063810;28;19940;-53
2022/03/10 04:29:01;;;;;;;;;;;24.40;31.40;;;;;;5061198;28;19932;-53
2022/03/10 04:31:27;;;;;;;;;;;24.40;31.30;;;;;;5063013;28;20357;-53
2022/03/10 04:33:52;;;;;;;;;;;24.40;31.20;;;;;;5059895;28;19920;-54
2022/03/10 04:36:18;;;;;;;;;;;24.40;31.10;;;;;;5062061;28;20240;-53
2022/03/10 04:38:44;;;;;;;;;;;24.50;31.20;;;;;;5060142;28;19934;-54
2022/03/10 04:41:10;;;;;;;;;;;24.50;31.10;;;;;;5062774;28;19920;-54
2022/03/10 04:43:35;;;;;;;;;;;24.50;31.00;;;;;;5063146;28;19912;-54
2022/03/10 04:46:03;;;;;;;;;;;24.50;31.00;;;;;;5061898;28;20680;-53
2022/03/10 04:48:29;;;;;;;;;;;24.50;31.00;;;;;;5064353;28;19969;-54
2022/03/10 04:50:54;;;;;;;;;;;24.50;31.00;;;;;;5059755;28;19928;-54
2022/03/10 04:53:19;;;;;;;;;;;24.50;31.00;;;;;;5062637;28;20012;-53
2022/03/10 04:55:45;;;;;;;;;;;24.50;31.00;;;;;;5060279;28;20288;-54
2022/03/10 04:58:11;;;;;;;;;;;24.50;31.00;;;;;;5061445;28;19982;-52
2022/03/10 05:00:36;;;;;;;;;;;24.50;31.00;;;;;;5061377;28;19916;-54
2022/03/10 05:03:02;;;;;;;;;;;24.40;31.00;;;;;;5060819;28;19921;-53
2022/03/10 05:05:27;;;;;;;;;;;24.40;31.00;;;;;;5062546;28;20037;-54
2022/03/10 05:07:52;;;;;;;;;;;24.40;31.00;;;;;;5060815;28;19936;-54
2022/03/10 05:10:18;;;;;;;;;;;24.50;31.00;;;;;;5061427;28;19967;-54
2022/03/10 05:12:47;;;;;;;;;;;24.40;30.90;;;;;;5061019;28;20292;-53
2022/03/10 05:15:12;;;;;;;;;;;24.40;30.90;;;;;;5058954;28;20008;-54
2022/03/10 05:17:38;;;;;;;;;;;24.30;30.90;;;;;;5062472;28;20011;-54
2022/03/10 05:20:05;;;;;;;;;;;24.30;31.00;;;;;;5058193;28;19920;-53
2022/03/10 05:22:43;;;;;;;;;;;24.30;31.10;;;;;;5063602;28;19913;-53
2022/03/10 05:25:09;;;;;;;;;;;24.30;31.00;;;;;;5060869;28;20410;-54
2022/03/10 05:27:35;;;;;;;;;;;24.30;31.10;;;;;;5060206;28;20015;-54
2022/03/10 05:30:00;;;;;;;;;;;24.30;31.10;;;;;;5060458;28;19920;-53
2022/03/10 05:32:26;;;;;;;;;;;24.30;31.20;;;;;;5059332;28;19926;-54
2022/03/10 05:34:51;;;;;;;;;;;24.30;31.20;;;;;;5062548;28;19912;-55
2022/03/10 05:37:16;;;;;;;;;;;24.30;31.10;;;;;;5060172;28;19916;-53
2022/03/10 05:39:42;;;;;;;;;;;24.30;31.10;;;;;;5061189;28;19913;-54
2022/03/10 05:42:07;;;;;;;;;;;24.30;31.00;;;;;;5061009;28;19916;-53
2022/03/10 05:44:33;;;;;;;;;;;24.30;31.00;;;;;;5061743;28;20007;-54
2022/03/10 05:46:58;;;;;;;;;;;24.30;31.00;;;;;;5061962;28;19916;-54
2022/03/10 05:49:24;;;;;;;;;;;24.30;31.00;;;;;;5059669;28;19921;-53
2022/03/10 05:51:49;;;;;;;;;;;24.30;31.00;;;;;;5061062;28;20015;-53
2022/03/10 05:54:15;;;;;;;;;;;24.30;31.00;;;;;;5059633;28;19952;-54
2022/03/10 05:56:40;;;;;;;;;;;24.30;30.90;;;;;;5061128;28;19912;-54
2022/03/10 05:59:05;;;;;;;;;;;24.30;30.90;;;;;;5060210;28;19920;-54
2022/03/10 06:01:31;;;;;;;;;;;24.30;30.90;;;;;;5060870;28;19948;-54
2022/03/10 06:03:57;;;;;;;;;;;24.30;30.70;;;;;;5060071;28;20403;-54
2022/03/10 06:06:23;;;;;;;;;;;24.40;30.70;;;;;;5060329;28;20339;-54
2022/03/10 06:08:48;;;;;;;;;;;24.40;30.70;;;;;;5059365;28;20019;-53
2022/03/10 06:11:14;;;;;;;;;;;24.40;30.70;;;;;;5059630;28;20379;-53
2022/03/10 06:13:40;;;;;;;;;;;24.50;30.60;;;;;;5062248;28;20387;-54
2022/03/10 06:16:05;;;;;;;;;;;24.50;30.60;;;;;;5058658;28;20004;-54
2022/03/10 06:18:31;;;;;;;;;;;24.50;30.60;;;;;;5062253;28;19932;-53
2022/03/10 06:20:56;;;;;;;;;;;24.50;30.60;;;;;;5059568;28;19917;-53
2022/03/10 06:23:22;;;;;;;;;;;24.50;30.60;;;;;;5060739;28;19958;-53
2022/03/10 06:25:47;;;;;;;;;;;24.50;30.50;;;;;;5060208;28;19917;-53
2022/03/10 06:28:13;;;;;;;;;;;24.50;30.40;;;;;;5060294;28;19924;-53
2022/03/10 06:30:38;;;;;;;;;;;24.50;30.50;;;;;;5060666;28;19920;-53
2022/03/10 06:33:04;;;;;;;;;;;24.50;30.40;;;;;;5058516;28;20640;-54
2022/03/10 06:35:29;;;;;;;;;;;24.50;30.40;;;;;;5062721;28;19987;-55
2022/03/10 06:37:55;;;;;;;;;;;24.50;30.40;;;;;;5059844;28;19921;-53
2022/03/10 06:40:20;;;;;;;;;;;24.50;30.40;;;;;;5060774;28;19960;-53
2022/03/10 06:42:46;;;;;;;;;;;24.50;30.40;;;;;;5059793;28;19924;-54
2022/03/10 06:45:11;;;;;;;;;;;24.50;30.50;;;;;;5058918;28;19912;-52
2022/03/10 06:47:36;;;;;;;;;;;24.40;30.50;;;;;;5058960;28;19917;-53
2022/03/10 06:50:02;;;;;;;;;;;24.50;30.60;;;;;;5057552;28;21845;-54
2022/03/10 06:52:31;;;;;;;;;;;24.40;30.50;;;;;;5061332;28;19912;-53
2022/03/10 06:54:56;;;;;;;;;;;24.50;30.50;;;;;;5058040;28;19920;-54
2022/03/10 06:57:21;;;;;;;;;;;24.50;30.50;;;;;;5064822;28;20315;-53
2022/03/10 06:59:47;;;;;;;;;;;24.40;30.40;;;;;;5062485;28;20350;-52
2022/03/10 07:02:12;;;;;;;;;;;24.50;30.50;;;;;;5062702;28;19916;-53
2022/03/10 07:04:38;;;;;;;;;;;24.40;30.40;;;;;;5063504;28;19984;-53
2022/03/10 07:07:03;;;;;;;;;;;24.50;30.50;;;;;;5063151;28;20027;-54
2022/03/10 07:09:29;;;;;;;;;;;24.40;30.40;;;;;;5062574;28;19956;-54
2022/03/10 07:11:54;;;;;;;;;;;24.50;30.50;;;;;;5062655;28;19936;-54
2022/03/10 07:14:20;;;;;;;;;;;24.50;30.50;;;;;;5065290;28;20039;-54
2022/03/10 07:16:45;;;;;;;;;;;24.50;30.40;;;;;;5062506;28;19912;-54
2022/03/10 07:19:12;;;;;;;;;;;24.50;30.40;;;;;;5063258;28;19923;-52
2022/03/10 07:21:38;;;;;;;;;;;24.50;30.40;;;;;;5063552;28;19973;-53
2022/03/10 07:24:04;;;;;;;;;;;24.50;30.40;;;;;;5062249;28;19942;-54
2022/03/10 07:26:30;;;;;;;;;;;24.50;30.40;;;;;;5063734;28;19912;-54
2022/03/10 07:28:59;;;;;;;;;;;24.50;30.50;;;;;;5062345;28;20711;-54
2022/03/10 07:31:28;;;;;;;;;;;24.50;30.60;;;;;;5062751;28;20012;-54
2022/03/10 07:33:53;;;;;;;;;;;24.40;30.60;;;;;;5060208;28;19927;-53
2022/03/10 07:36:19;;;;;;;;;;;24.40;30.60;;;;;;5063342;28;19916;-53
2022/03/10 07:38:44;;;;;;;;;;;24.40;30.60;;;;;;5062769;28;19920;-54
2022/03/10 07:41:09;;;;;;;;;;;24.40;30.50;;;;;;5062997;28;19923;-53
2022/03/10 07:43:35;;;;;;;;;;;24.40;30.50;;;;;;5062610;28;19912;-54
2022/03/10 07:46:04;;;;;;;;;;;24.40;30.50;;;;;;5060583;28;19920;-54
2022/03/10 07:48:30;;;;;;;;;;;24.30;30.50;;;;;;5064686;28;19947;-54
2022/03/10 07:50:55;;;;;;;;;;;24.30;30.50;;;;;;5061682;28;19921;-54
2022/03/10 07:53:21;;;;;;;;;;;24.40;30.60;;;;;;5062671;28;20353;-54
2022/03/10 07:55:47;;;;;;;;;;;24.40;30.50;;;;;;5062521;28;20319;-54
2022/03/10 07:58:12;;;;;;;;;;;24.40;30.50;;;;;;5062920;28;19925;-54
2022/03/10 08:00:38;;;;;;;;;;;24.40;30.60;;;;;;5066676;28;19916;-54
2022/03/10 08:03:03;;;;;;;;;;;24.40;30.60;;;;;;5072546;28;19916;-53
2022/03/10 08:05:29;;;;;;;;;;;24.40;30.50;;;;;;5066203;28;20296;-54
2022/03/10 08:07:55;;;;;;;;;;;24.40;30.50;;;;;;5070291;28;19925;-54
2022/03/10 08:10:20;;;;;;;;;;;24.40;30.50;;;;;;5069474;28;19982;-53
2022/03/10 08:12:46;;;;;;;;;;;24.50;30.90;;;;;;5071423;28;19935;-53
2022/03/10 08:15:11;;;;;;;;;;;24.50;30.90;;;;;;5064553;28;19920;-53
2022/03/10 08:17:37;;;;;;;;;;;24.50;30.90;;;;;;5072584;28;19920;-53
2022/03/10 08:20:03;;;;;;;;;;;24.50;30.90;;;;;;5071225;28;20011;-53
2022/03/10 08:22:29;;;;;;;;;;;24.60;30.90;;;;;;5066665;28;20455;-53
2022/03/10 08:24:54;;;;;;;;;;;24.70;30.80;;;;;;5072306;28;19912;-53
2022/03/10 08:27:20;;;;;;;;;;;24.70;31.50;;;;;;5071515;28;19917;-53
2022/03/10 08:29:45;;;;;;;;;;;24.70;30.90;;;;;;5072619;28;19916;-53
2022/03/10 08:32:11;;;;;;;;;;;24.80;30.80;;;;;;5072023;28;19956;-53
2022/03/10 08:34:38;;;;;;;;;;;24.90;30.90;;;;;;5071830;28;20343;-54
2022/03/10 08:37:04;;;;;;;;;;;24.90;30.90;;;;;;5071599;28;20372;-54
2022/03/10 08:39:29;;;;;;;;;;;24.90;30.70;;;;;;5069282;28;20265;-54
2022/03/10 08:41:55;;;;;;;;;;;24.90;30.80;;;;;;5066269;28;19912;-54
2022/03/10 08:44:20;;;;;;;;;;;25.00;30.70;;;;;;5069351;28;19966;-53
2022/03/10 08:46:46;;;;;;;;;;;25.10;30.70;;;;;;5072887;28;19954;-53
2022/03/10 08:49:13;;;;;;;;;;;25.30;30.30;;;;;;5071358;28;19927;-53
2022/03/10 08:51:39;;;;;;;;;;;25.40;30.20;;;;;;5071518;28;19916;-53
2022/03/10 08:54:04;;;;;;;;;;;25.50;30.10;;;;;;5070640;28;19921;-53
2022/03/10 08:56:29;;;;;;;;;;;25.60;30.10;;;;;;5065088;28;20449;-53
2022/03/10 08:58:56;;;;;;;;;;;25.50;30.00;;;;;;5071557;28;20395;-53
2022/03/10 09:01:21;;;;;;;;;;;25.50;30.10;;;;;;5065339;28;19913;-53
2022/03/10 09:03:47;;;;;;;;;;;25.50;30.20;;;;;;5066951;28;20333;-53
2022/03/10 09:06:13;;;;;;;;;;;25.40;30.30;;;;;;5070277;28;19924;-54
2022/03/10 09:08:39;;;;;;;;;;;25.40;30.40;;;;;;5060240;28;19926;-52
2022/03/10 09:11:04;;;;;;;;;;;25.40;30.40;;;;;;5066186;28;19995;-52
2022/03/10 09:13:30;;;;;;;;;;;25.40;30.40;;;;;;5064161;28;19970;-52
2022/03/10 09:15:56;;;;;;;;;;;25.40;30.40;;;;;;5065335;28;20338;-53
2022/03/10 09:18:21;;;;;;;;;;;25.40;30.40;;;;;;5068355;28;19919;-53
2022/03/10 09:20:46;;;;;;;;;;;25.30;30.30;;;;;;5056381;28;20375;-53
2022/03/10 09:23:12;;;;;;;;;;;25.40;30.60;;;;;;5071063;28;20390;-52
2022/03/10 09:25:38;;;;;;;;;;;25.30;30.60;;;;;;5070500;28;20655;-53
2022/03/10 09:28:03;;;;;;;;;;;25.30;30.80;;;;;;5065394;28;19974;-54
2022/03/10 09:30:29;;;;;;;;;;;25.30;30.80;;;;;;5068333;28;20331;-52
2022/03/10 09:32:57;;;;;;;;;;;25.30;30.90;;;;;;5070831;28;20008;-53
2022/03/10 09:35:23;;;;;;;;;;;25.30;30.90;;;;;;5068985;28;20011;-53
2022/03/10 09:37:48;;;;;;;;;;;25.20;30.80;;;;;;5071439;28;20003;-53
2022/03/10 09:40:14;;;;;;;;;;;25.30;30.90;;;;;;5070706;28;19924;-52
2022/03/10 09:42:39;;;;;;;;;;;25.30;30.90;;;;;;5071085;28;20372;-53
2022/03/10 09:45:07;;;;;;;;;;;25.30;30.90;;;;;;5071356;28;19966;-53
2022/03/10 09:47:33;;;;;;;;;;;25.30;31.00;;;;;;5071470;28;20299;-53
2022/03/10 09:49:59;;;;;;;;;;;25.30;31.00;;;;;;5070034;28;19921;-53
2022/03/10 09:52:25;;;;;;;;;;;25.30;31.20;;;;;;5066232;28;19912;-53
2022/03/10 09:54:50;;;;;;;;;;;25.30;31.20;;;;;;5068501;28;20307;-54
2022/03/10 09:57:16;;;;;;;;;;;25.30;31.30;;;;;;5066835;28;19973;-52
2022/03/10 09:59:49;;;;;;;;;;;25.30;31.40;;;;;;5069274;28;19913;-54
2022/03/10 10:02:14;;;;;;;;;;;25.40;31.60;;;;;;5069267;28;19926;-53
2022/03/10 10:04:41;;;;;;;;;;;25.40;31.70;;;;;;5066630;28;20027;-53
2022/03/10 10:07:06;;;;;;;;;;;25.30;31.80;;;;;;5064903;28;20026;-53
2022/03/10 10:09:41;;;;;;;;;;;25.30;32.10;;;;;;5069015;28;19999;-53
2022/03/10 10:12:07;;;;;;;;;;;25.30;32.00;;;;;;5071374;28;19919;-53
2022/03/10 10:14:34;;;;;;;;;;;25.30;31.90;;;;;;5071735;28;19916;-53
2022/03/10 10:17:00;;;;;;;;;;;25.30;31.90;;;;;;5071672;28;19993;-53
2022/03/10 10:19:25;;;;;;;;;;;25.30;31.90;;;;;;5071348;28;20423;-53
2022/03/10 10:22:07;;;;;;;;;;;25.30;31.70;;;;;;5072161;28;20376;-53
2022/03/10 10:24:32;;;;;;;;;;;25.30;31.80;;;;;;5071263;28;19934;-53
2022/03/10 10:27:17;;;;;;;;;;;25.30;31.90;;;;;;5070774;28;20376;-54
2022/03/10 10:29:46;;;;;;;;;;;25.20;31.80;;;;;;5071703;28;19920;-54
2022/03/10 10:32:12;;;;;;;;;;;25.10;32.00;;;;;;5075085;28;20007;-53
2022/03/10 10:34:38;;;;;;;;;;;25.10;32.00;;;;;;5073944;28;19913;-53
2022/03/10 10:37:03;;;;;;;;;;;25.10;32.00;;;;;;5075667;28;19922;-53
2022/03/10 10:39:29;;;;;;;;;;;25.10;32.00;;;;;;5075332;28;19916;-53
2022/03/10 10:41:54;;;;;;;;;;;25.10;32.00;;;;;;5075812;28;20277;-53
2022/03/10 10:44:23;;;;;;;;;;;25.10;32.00;;;;;;5073417;28;20391;-56
2022/03/10 10:46:49;;;;;;;;;;;25.10;32.00;;;;;;5075909;28;20246;-53
2022/03/10 10:49:15;;;;;;;;;;;25.10;32.00;;;;;;5075091;28;19959;-53
2022/03/10 10:51:44;;;;;;;;;;;25.20;32.10;;;;;;5075846;28;19916;-53
2022/03/10 10:54:31;;;;;;;;;;;25.10;32.00;;;;;;5074357;28;20329;-52
2022/03/10 10:57:05;;;;;;;;;;;25.20;32.10;;;;;;5075058;28;19913;-53
2022/03/10 10:59:34;;;;;;;;;;;25.20;31.90;;;;;;5066178;28;19924;-53
2022/03/10 11:02:03;;;;;;;;;;;25.20;31.80;;;;;;5064776;28;20294;-54
2022/03/10 11:04:29;;;;;;;;;;;25.20;31.80;;;;;;5061004;28;20454;-54
2022/03/10 11:06:54;;;;;;;;;;;25.30;31.70;;;;;;5063939;28;19924;-53
2022/03/10 11:09:19;;;;;;;;;;;25.30;31.80;;;;;;5061499;28;19939;-53
2022/03/10 11:11:45;;;;;;;;;;;25.20;31.80;;;;;;5061629;28;19923;-53
2022/03/10 11:14:10;;;;;;;;;;;25.20;31.80;;;;;;5064452;28;19992;-53
2022/03/10 11:16:36;;;;;;;;;;;25.20;32.40;;;;;;5060737;28;19913;-53
2022/03/10 11:19:01;;;;;;;;;;;25.30;31.70;;;;;;5064016;28;19912;-53
2022/03/10 11:21:33;;;;;;;;;;;25.30;31.60;;;;;;5064452;28;20350;-53
2022/03/10 11:24:10;;;;;;;;;;;25.30;31.60;;;;;;5062219;28;19917;-54
2022/03/10 11:26:54;;;;;;;;;;;25.40;31.60;;;;;;5062037;28;19919;-54
2022/03/10 11:29:21;;;;;;;;;;;25.40;31.60;;;;;;5065133;28;19940;-53
2022/03/10 11:31:46;;;;;;;;;;;25.40;31.70;;;;;;5061214;28;20564;-54
2022/03/10 11:34:31;;;;;;;;;;;25.40;31.70;;;;;;5064615;28;19966;-53
2022/03/10 11:36:57;;;;;;;;;;;25.40;31.60;;;;;;5061471;28;19913;-53
2022/03/10 11:39:23;;;;;;;;;;;25.40;31.60;;;;;;5061053;28;19920;-53
2022/03/10 11:41:50;;;;;;;;;;;25.40;31.50;;;;;;5062278;28;20284;-53
2022/03/10 11:44:19;;;;;;;;;;;25.40;31.80;;;;;;5062720;28;19938;-53
2022/03/10 11:46:51;;;;;;;;;;;25.40;31.60;;;;;;5061542;28;19916;-53
2022/03/10 11:49:16;;;;;;;;;;;25.30;31.60;;;;;;5061767;28;19916;-52
2022/03/10 11:51:45;;;;;;;;;;;25.30;31.70;;;;;;5062508;28;20031;-53
2022/03/10 11:54:11;;;;;;;;;;;25.20;31.60;;;;;;5061680;28;19920;-53
2022/03/10 11:56:43;;;;;;;;;;;25.20;31.80;;;;;;5062651;28;19916;-52
2022/03/10 11:59:24;;;;;;;;;;;25.20;31.80;;;;;;5059176;28;19922;-53
2022/03/10 12:01:50;;;;;;;;;;;25.20;32.40;;;;;;5060974;28;19928;-53
2022/03/10 12:04:17;;;;;;;;;;;25.30;31.80;;;;;;5061405;28;19912;-53
2022/03/10 12:06:55;;;;;;;;;;;25.30;31.80;;;;;;5060125;28;19932;-53
2022/03/10 12:09:31;;;;;;;;;;;25.30;31.80;;;;;;5058824;28;20041;-53
2022/03/10 12:12:15;;;;;;;;;;;25.30;31.70;;;;;;5062256;28;19916;-53
2022/03/10 12:14:41;;;;;;;;;;;25.40;31.70;;;;;;5063631;28;19913;-53
2022/03/10 12:17:25;;;;;;;;;;;25.40;31.70;;;;;;5060633;28;20348;-53
2022/03/10 12:20:09;;;;;;;;;;;25.40;31.60;;;;;;5059274;28;19975;-53
2022/03/10 12:22:35;;;;;;;;;;;25.40;31.60;;;;;;5061219;28;19916;-54
2022/03/10 12:25:16;;;;;;;;;;;25.40;31.60;;;;;;5061510;28;19919;-54
2022/03/10 12:27:49;;;;;;;;;;;25.50;31.50;;;;;;5061171;28;19966;-54
2022/03/10 12:30:15;;;;;;;;;;;25.50;31.50;;;;;;5060039;28;20050;-54
2022/03/10 12:32:40;;;;;;;;;;;25.50;31.60;;;;;;5059840;28;19999;-53
2022/03/10 12:35:06;;;;;;;;;;;25.50;31.60;;;;;;5059838;28;19913;-53
2022/03/10 12:37:31;;;;;;;;;;;25.50;31.60;;;;;;5062196;28;19916;-54
2022/03/10 12:39:57;;;;;;;;;;;25.50;31.50;;;;;;5059853;28;19919;-53
2022/03/10 12:42:23;;;;;;;;;;;25.50;31.40;;;;;;5062550;28;19927;-54
2022/03/10 12:44:48;;;;;;;;;;;25.40;31.40;;;;;;5061257;28;19913;-54
2022/03/10 12:47:15;;;;;;;;;;;25.50;31.50;;;;;;5061203;28;19917;-54
2022/03/10 12:49:43;;;;;;;;;;;25.40;31.50;;;;;;5062723;28;19916;-53
2022/03/10 12:52:09;;;;;;;;;;;25.50;31.60;;;;;;5060197;28;19924;-53
2022/03/10 12:54:38;;;;;;;;;;;25.50;31.50;;;;;;5059449;28;20395;-53
2022/03/10 12:57:04;;;;;;;;;;;25.50;31.30;;;;;;5059706;28;19912;-52
2022/03/10 12:59:32;;;;;;;;;;;25.40;31.20;;;;;;5062611;28;19916;-53
2022/03/10 13:02:11;;;;;;;;;;;25.40;31.30;;;;;;5060584;28;20344;-53
2022/03/10 13:04:45;;;;;;;;;;;25.40;31.20;;;;;;5059027;28;19912;-53
2022/03/10 13:07:12;;;;;;;;;;;25.40;31.40;;;;;;5060322;28;20425;-53
2022/03/10 13:09:38;;;;;;;;;;;25.40;31.40;;;;;;5060407;28;19931;-53
2022/03/10 13:12:04;;;;;;;;;;;25.40;31.40;;;;;;5059244;28;19920;-53
2022/03/10 13:14:29;;;;;;;;;;;25.30;31.50;;;;;;5060693;28;19917;-53
2022/03/10 13:16:55;;;;;;;;;;;25.30;31.60;;;;;;5059884;28;19920;-53
2022/03/10 13:19:21;;;;;;;;;;;25.30;31.50;;;;;;5065460;28;19917;-53
2022/03/10 13:21:50;;;;;;;;;;;25.30;31.40;;;;;;5070488;28;19970;-53
2022/03/10 13:24:34;;;;;;;;;;;25.40;31.40;;;;;;5071862;28;20342;-54
2022/03/10 13:27:03;;;;;;;;;;;25.40;31.30;;;;;;5063582;28;20002;-54
2022/03/10 13:29:29;;;;;;;;;;;25.50;31.20;;;;;;5052085;28;19923;-53
2022/03/10 13:31:54;;;;;;;;;;;25.50;31.00;;;;;;5052455;28;20007;-53
2022/03/10 13:34:20;;;;;;;;;;;25.50;31.00;;;;;;5052087;28;19909;-54
2022/03/10 13:36:45;;;;;;;;;;;25.50;31.00;;;;;;5059688;28;19908;-53
2022/03/10 13:39:11;;;;;;;;;;;25.50;31.00;;;;;;5070501;28;20322;-53
2022/03/10 13:41:36;;;;;;;;;;;25.40;31.20;;;;;;5069846;28;19981;-53
2022/03/10 13:44:12;;;;;;;;;;;25.40;31.20;;;;;;5071309;28;19966;-53
2022/03/10 13:46:38;;;;;;;;;;;25.40;31.50;;;;;;5071357;28;20355;-53
2022/03/10 13:49:04;;;;;;;;;;;25.40;31.60;;;;;;5070243;28;19979;-53
2022/03/10 13:51:29;;;;;;;;;;;25.50;31.50;;;;;;5069370;28;19919;-53
2022/03/10 13:54:01;;;;;;;;;;;25.50;31.50;;;;;;5071140;28;20474;-53
2022/03/10 13:56:27;;;;;;;;;;;25.60;31.40;;;;;;5071039;28;19912;-54
2022/03/10 13:58:52;;;;;;;;;;;25.60;31.30;;;;;;5069606;28;19912;-54
2022/03/10 14:01:18;;;;;;;;;;;25.60;31.20;;;;;;5071503;28;19962;-54
2022/03/10 14:03:43;;;;;;;;;;;25.60;31.00;;;;;;5070964;28;19922;-54
2022/03/10 14:06:10;;;;;;;;;;;25.60;31.20;;;;;;5068801;28;19979;-54
2022/03/10 14:08:36;;;;;;;;;;;25.60;31.20;;;;;;5056156;28;19917;-54
2022/03/10 14:11:03;;;;;;;;;;;25.60;31.00;;;;;;5056743;28;20016;-54
2022/03/10 14:13:33;;;;;;;;;;;25.70;31.00;;;;;;5069267;28;19970;-54
2022/03/10 14:16:00;;;;;;;;;;;25.70;30.90;;;;;;5070813;28;19912;-53
2022/03/10 14:18:25;;;;;;;;;;;25.70;30.80;;;;;;5069871;28;19913;-53